Time;durP1;ratioP1;P1;durP2;ratioP2;P2;SDS_P1;SDS_P2;PMS_P1;PMS_P2;Temp;Humidity;BMP_temperature;BMP_pressure;BME280_temperature;BME280_humidity;BME280_pressure;Samples;Min_cycle;Max_cycle;Signal;HPM_P1;HPM_P2
2021/09/01 00:01:27;;;;;;;8.33;7.57;;;;;;;13.18;98.90;99537.06;4987819;28;104693;-68
2021/09/01 00:03:56;;;;;;;7.27;6.57;;;;;;;13.16;99.62;99537.16;4995381;28;103303;-68
2021/09/01 00:06:24;;;;;;;9.87;7.83;;;;;;;13.20;99.42;99532.47;4996583;28;102690;-68
2021/09/01 00:08:53;;;;;;;6.50;5.90;;;;;;;13.16;99.86;99528.34;4998188;28;103634;-67
2021/09/01 00:11:22;;;;;;;6.03;5.53;;;;;;;13.23;99.42;99527.81;4995514;28;103207;-68
2021/09/01 00:13:50;;;;;;;8.27;7.47;;;;;;;13.16;98.75;99531.88;4996277;28;103177;-67
2021/09/01 00:16:30;;;;;;;6.03;5.53;;;;;;;13.17;99.16;99536.19;4996386;28;102785;-58
2021/09/01 00:19:00;;;;;;;9.37;8.27;;;;;;;12.97;98.69;99542.00;4995177;28;103872;-58
2021/09/01 00:21:29;;;;;;;8.17;7.37;;;;;;;12.86;100.00;99544.53;4994990;28;103243;-58
2021/09/01 00:23:57;;;;;;;8.43;7.53;;;;;;;12.91;100.00;99542.44;4998544;28;103207;-75
2021/09/01 00:26:26;;;;;;;7.40;6.13;;;;;;;12.96;99.75;99550.06;4997090;28;102804;-57
2021/09/01 00:28:54;;;;;;;7.77;6.87;;;;;;;12.98;99.41;99549.00;4988882;28;102777;-56
2021/09/01 00:31:24;;;;;;;8.40;7.70;;;;;;;12.83;99.01;99547.38;4994225;28;103312;-57
2021/09/01 00:33:53;;;;;;;7.93;7.20;;;;;;;12.73;100.00;99544.53;4997893;28;103272;-58
2021/09/01 00:36:21;;;;;;;8.90;8.00;;;;;;;12.67;100.00;99538.78;4996876;28;102626;-57
2021/09/01 00:38:49;;;;;;;8.10;6.80;;;;;;;12.70;100.00;99539.44;4995402;28;102675;-57
2021/09/01 00:41:18;;;;;;;6.60;6.00;;;;;;;12.74;100.00;99534.78;4994647;28;104497;-57
2021/09/01 00:43:47;;;;;;;6.97;6.37;;;;;;;12.76;100.00;99539.03;4996723;28;103222;-66
2021/09/01 00:46:16;;;;;;;6.30;5.70;;;;;;;12.78;99.79;99533.59;4987923;28;102828;-68
2021/09/01 00:48:46;;;;;;;7.20;5.97;;;;;;;12.80;99.20;99534.34;4996872;28;102767;-68
2021/09/01 00:51:16;;;;;;;5.80;5.30;;;;;;;12.81;99.12;99541.34;4995747;28;103400;-66
2021/09/01 00:53:46;;;;;;;4.67;4.27;;;;;;;12.74;98.36;99540.09;4996754;28;103843;-67
2021/09/01 00:56:16;;;;;;;8.63;7.73;;;;;;;12.50;99.04;99542.56;4995762;28;102626;-67
2021/09/01 00:58:46;;;;;;;8.03;6.80;;;;;;;12.51;100.00;99538.13;4996709;28;103938;-67
2021/09/01 01:01:17;;;;;;;8.50;7.27;;;;;;;12.58;100.00;99534.09;4991217;28;103318;-67
2021/09/01 01:03:48;;;;;;;7.30;6.60;;;;;;;12.59;99.04;99538.47;4995037;28;103213;-67
2021/09/01 01:06:18;;;;;;;5.93;5.43;;;;;;;12.63;99.15;99543.44;4997941;28;102662;-67
2021/09/01 01:08:47;;;;;;;6.63;5.97;;;;;;;12.68;99.00;99540.50;5008246;28;103115;-68
2021/09/01 01:11:16;;;;;;;5.70;5.20;;;;;;;12.62;98.19;99540.91;4992870;28;103114;-68
2021/09/01 01:13:45;;;;;;;6.20;5.60;;;;;;;12.63;98.63;99529.34;4992803;28;103853;-67
2021/09/01 01:16:15;;;;;;;6.10;5.50;;;;;;;12.66;98.37;99537.06;4999806;28;102889;-67
2021/09/01 01:18:45;;;;;;;5.17;4.67;;;;;;;12.67;98.04;99533.47;4997291;28;102700;-67
2021/09/01 01:21:16;;;;;;;6.30;5.20;;;;;;;12.63;97.77;99542.63;4999243;28;103311;-58
2021/09/01 01:23:44;;;;;;;8.53;7.57;;;;;;;12.48;97.67;99538.34;5000206;28;102995;-58
2021/09/01 01:26:13;;;;;;;6.33;5.73;;;;;;;12.48;99.04;99533.03;4997598;28;102570;-58
2021/09/01 01:28:41;;;;;;;6.23;5.63;;;;;;;12.48;99.14;99533.88;5000330;28;102933;-58
2021/09/01 01:31:09;;;;;;;6.83;5.80;;;;;;;12.49;98.85;99532.91;4988002;28;103282;-58
2021/09/01 01:33:37;;;;;;;7.37;6.73;;;;;;;12.38;100.00;99529.31;4998385;28;103315;-58
2021/09/01 01:36:05;;;;;;;5.90;5.40;;;;;;;12.43;100.00;99535.13;4998202;28;103159;-59
2021/09/01 01:38:33;;;;;;;6.07;5.47;;;;;;;12.45;100.00;99531.44;4989979;28;103005;-57
2021/09/01 01:41:01;;;;;;;7.30;6.57;;;;;;;12.41;100.00;99529.94;4996708;28;103308;-56
2021/09/01 01:43:36;;;;;;;9.63;7.87;;;;;;;12.32;100.00;99532.34;4996527;28;103201;-56
2021/09/01 01:46:05;;;;;;;7.60;6.80;;;;;;;12.26;100.00;99533.63;4992405;28;102718;-57
2021/09/01 01:48:34;;;;;;;8.13;7.33;;;;;;;12.24;100.00;99539.97;5000773;28;104548;-57
2021/09/01 01:51:02;;;;;;;7.03;6.43;;;;;;;12.19;100.00;99538.47;4998151;28;103731;-58
2021/09/01 01:53:30;;;;;;;7.57;6.70;;;;;;;12.27;100.00;99535.28;4999390;28;103217;-58
2021/09/01 01:55:59;;;;;;;7.67;6.67;;;;;;;12.34;100.00;99538.41;4999049;28;102643;-60
2021/09/01 01:58:27;;;;;;;5.57;5.07;;;;;;;12.41;100.00;99537.03;5000166;28;102661;-58
2021/09/01 02:00:56;;;;;;;6.83;6.23;;;;;;;12.40;100.00;99540.66;4994873;28;104004;-58
2021/09/01 02:03:25;;;;;;;6.13;5.33;;;;;;;12.39;100.00;99544.22;4996483;28;103259;-58
2021/09/01 02:05:53;;;;;;;5.10;4.60;;;;;;;12.45;100.00;99543.84;4989995;28;102789;-59
2021/09/01 02:08:21;;;;;;;7.07;5.50;;;;;;;12.45;100.00;99542.03;4998692;28;102753;-58
2021/09/01 02:10:49;;;;;;;6.33;5.80;;;;;;;12.30;99.72;99547.50;4998105;28;103751;-59
2021/09/01 02:13:17;;;;;;;6.10;5.57;;;;;;;12.28;99.92;99541.44;4999320;28;103318;-59
2021/09/01 02:15:45;;;;;;;5.73;5.23;;;;;;;12.31;100.00;99541.25;4999500;28;102687;-58
2021/09/01 02:18:14;;;;;;;5.57;5.13;;;;;;;12.34;99.70;99541.91;4997098;28;102792;-58
2021/09/01 02:20:43;;;;;;;5.63;5.13;;;;;;;12.29;99.32;99540.50;4995966;28;103443;-57
2021/09/01 02:23:11;;;;;;;7.73;7.03;;;;;;;12.23;99.23;99543.56;4998231;28;103251;-57
2021/09/01 02:25:39;;;;;;;5.40;4.90;;;;;;;12.23;99.70;99543.56;4997722;28;102700;-58
2021/09/01 02:28:07;;;;;;;6.03;5.43;;;;;;;12.26;99.51;99538.06;4997073;28;103928;-58
2021/09/01 02:30:35;;;;;;;7.10;6.13;;;;;;;12.23;99.16;99546.19;4997364;28;103315;-58
2021/09/01 02:33:03;;;;;;;7.90;7.10;;;;;;;12.09;98.87;99547.97;4990296;28;103249;-58
2021/09/01 02:35:32;;;;;;;11.20;8.60;;;;;;;11.94;99.56;99548.94;4998321;28;103044;-58
2021/09/01 02:38:00;;;;;;;8.30;6.80;;;;;;;11.98;100.00;99558.41;4999464;28;102762;-58
2021/09/01 02:40:28;;;;;;;6.93;6.33;;;;;;;12.06;100.00;99552.59;4999041;28;103320;-58
2021/09/01 02:42:56;;;;;;;9.30;7.40;;;;;;;11.96;99.78;99547.03;4998894;28;102986;-58
2021/09/01 02:45:25;;;;;;;8.13;7.33;;;;;;;11.92;100.00;99550.84;4996532;28;102548;-58
2021/09/01 02:47:53;;;;;;;7.57;6.87;;;;;;;11.91;100.00;99551.78;4998485;28;104019;-57
2021/09/01 02:50:21;;;;;;;8.73;7.93;;;;;;;11.71;100.00;99549.56;4998004;28;103257;-57
2021/09/01 02:52:50;;;;;;;12.90;8.97;;;;;;;11.57;100.00;99550.41;4998549;28;103228;-57
2021/09/01 02:55:18;;;;;;;12.27;9.20;;;;;;;11.56;100.00;99548.69;4993440;28;104776;-58
2021/09/01 02:57:46;;;;;;;7.23;6.53;;;;;;;11.63;100.00;99550.03;4997485;28;102723;-58
2021/09/01 03:00:14;;;;;;;9.23;8.27;;;;;;;11.73;100.00;99554.78;4998853;28;103040;-58
2021/09/01 03:02:43;;;;;;;7.20;6.50;;;;;;;11.81;100.00;99553.34;4997648;28;103320;-58
2021/09/01 03:05:11;;;;;;;11.90;8.90;;;;;;;11.72;100.00;99553.06;4998608;28;102669;-57
2021/09/01 03:07:39;;;;;;;6.77;6.13;;;;;;;11.73;100.00;99558.28;4998470;28;104121;-58
2021/09/01 03:10:09;;;;;;;9.37;8.47;;;;;;;11.66;100.00;99559.56;4998088;28;103391;-59
2021/09/01 03:12:37;;;;;;;8.00;7.30;;;;;;;11.65;100.00;99560.50;4991062;28;102989;-58
2021/09/01 03:15:06;;;;;;;7.80;7.10;;;;;;;11.55;100.00;99552.31;4998711;28;102672;-58
2021/09/01 03:17:34;;;;;;;6.43;5.77;;;;;;;11.66;100.00;99554.28;4998386;28;103039;-58
2021/09/01 03:20:02;;;;;;;9.33;7.47;;;;;;;11.59;100.00;99548.50;4996041;28;104032;-56
2021/09/01 03:22:30;;;;;;;9.60;8.10;;;;;;;11.45;100.00;99545.06;4998353;28;103224;-58
2021/09/01 03:24:58;;;;;;;7.63;6.93;;;;;;;11.42;100.00;99553.19;4997403;28;102695;-56
2021/09/01 03:27:28;;;;;;;9.93;8.17;;;;;;;11.48;100.00;99550.16;4986381;28;102912;-59
2021/09/01 03:29:56;;;;;;;9.67;8.63;;;;;;;11.40;100.00;99557.69;4995289;28;103293;-58
2021/09/01 03:32:24;;;;;;;8.17;6.90;;;;;;;11.51;100.00;99560.50;4996008;28;103236;-58
2021/09/01 03:34:52;;;;;;;7.63;6.93;;;;;;;11.51;100.00;99558.72;4997361;28;102698;-58
2021/09/01 03:37:20;;;;;;;8.13;7.33;;;;;;;11.50;100.00;99561.47;4997397;28;102730;-57
2021/09/01 03:39:48;;;;;;;104.90;14.60;;;;;;;11.53;100.00;99563.94;4997619;28;104019;-57
2021/09/01 03:42:16;;;;;;;46.07;11.33;;;;;;;11.47;100.00;99569.59;4996488;28;103174;-58
2021/09/01 03:44:45;;;;;;;23.53;11.93;;;;;;;11.49;100.00;99565.06;4997879;28;102633;-58
2021/09/01 03:47:13;;;;;;;32.13;12.37;;;;;;;11.45;100.00;99561.75;4990051;28;102804;-58
2021/09/01 03:49:42;;;;;;;38.70;10.63;;;;;;;11.55;100.00;99569.97;4996890;28;103288;-58
2021/09/01 03:52:10;;;;;;;23.03;9.97;;;;;;;11.57;100.00;99568.06;4996644;28;103726;-58
2021/09/01 03:54:38;;;;;;;8.93;7.27;;;;;;;11.74;100.00;99565.25;4997621;28;103289;-58
2021/09/01 03:57:06;;;;;;;12.03;9.77;;;;;;;11.81;100.00;99574.53;4997024;28;104207;-58
2021/09/01 03:59:34;;;;;;;9.30;7.63;;;;;;;11.79;100.00;99575.56;4996342;28;103985;-58
2021/09/01 04:02:07;;;;;;;8.33;7.47;;;;;;;11.90;100.00;99568.63;4990396;28;103262;-58
2021/09/01 04:04:35;;;;;;;8.60;7.70;;;;;;;11.94;100.00;99570.13;5003666;28;102703;-58
2021/09/01 04:07:04;;;;;;;19.30;9.10;;;;;;;11.89;100.00;99574.88;5009180;28;102718;-58
2021/09/01 04:09:33;;;;;;;60.37;11.97;;;;;;;11.85;100.00;99573.34;5010257;28;103293;-58
2021/09/01 04:12:06;;;;;;;34.20;11.20;;;;;;;11.81;100.00;99569.22;5007013;28;103229;-58
2021/09/01 04:14:35;;;;;;;187.80;14.43;;;;;;;11.85;100.00;99570.72;5011077;28;102632;-58
2021/09/01 04:17:03;;;;;;;105.37;13.80;;;;;;;11.82;100.00;99576.19;5007285;28;102766;-58
2021/09/01 04:19:33;;;;;;;9.80;8.13;;;;;;;11.91;100.00;99578.28;5006932;28;103262;-58
2021/09/01 04:22:01;;;;;;;8.27;7.10;;;;;;;12.04;100.00;99578.34;5008097;28;103007;-58
2021/09/01 04:24:29;;;;;;;10.20;7.27;;;;;;;12.11;100.00;99584.94;5010235;28;102712;-58
2021/09/01 04:26:57;;;;;;;19.33;8.33;;;;;;;12.14;100.00;99588.25;5007984;28;103047;-68
2021/09/01 04:29:25;;;;;;;7.00;6.40;;;;;;;12.19;100.00;99588.78;5008829;28;103336;-67
2021/09/01 04:31:53;;;;;;;9.40;7.20;;;;;;;12.24;100.00;99588.47;5009330;28;103169;-69
2021/09/01 04:34:21;;;;;;;8.07;7.13;;;;;;;12.28;100.00;99590.00;5009806;28;102699;-68
2021/09/01 04:36:50;;;;;;;8.90;7.03;;;;;;;12.29;100.00;99585.56;5008304;28;103662;-68
2021/09/01 04:39:18;;;;;;;191.73;16.27;;;;;;;12.26;100.00;99591.03;4989680;28;103300;-68
2021/09/01 04:41:50;;;;;;;49.20;10.43;;;;;;;12.28;100.00;99591.78;5015626;28;103278;-68
2021/09/01 04:44:18;;;;;;;8.33;7.33;;;;;;;12.34;100.00;99589.59;5012457;28;102797;-58
2021/09/01 04:46:46;;;;;;;7.97;6.97;;;;;;;12.37;100.00;99592.06;4995397;28;102977;-59
2021/09/01 04:49:14;;;;;;;14.40;8.13;;;;;;;12.38;100.00;99585.78;5011351;28;103409;-59
2021/09/01 04:51:42;;;;;;;27.37;9.37;;;;;;;12.44;100.00;99590.69;5013390;28;103214;-58
2021/09/01 04:54:12;;;;;;;24.97;10.03;;;;;;;12.35;100.00;99585.16;4989145;28;103068;-58
2021/09/01 04:56:40;;;;;;;18.90;9.67;;;;;;;12.42;100.00;99583.78;5003158;28;102721;-58
2021/09/01 04:59:08;;;;;;;18.63;9.47;;;;;;;12.33;100.00;99593.19;5009158;28;103278;-58
2021/09/01 05:01:36;;;;;;;8.20;7.33;;;;;;;12.24;100.00;99592.97;5011582;28;103192;-58
2021/09/01 05:04:04;;;;;;;7.57;6.93;;;;;;;12.37;100.00;99599.16;5007919;28;103016;-59
2021/09/01 05:06:32;;;;;;;8.13;7.43;;;;;;;12.46;100.00;99601.19;5012213;28;104023;-58
2021/09/01 05:09:00;;;;;;;100.90;12.00;;;;;;;12.37;100.00;99609.75;5009590;28;104431;-58
2021/09/01 05:11:29;;;;;;;24.10;9.00;;;;;;;12.14;100.00;99604.13;5010936;28;103257;-59
2021/09/01 05:13:57;;;;;;;102.83;13.70;;;;;;;12.10;100.00;99602.63;5007879;28;102695;-58
2021/09/01 05:16:25;;;;;;;109.10;13.20;;;;;;;11.81;100.00;99606.28;5011519;28;102702;-58
2021/09/01 05:18:53;;;;;;;104.80;13.93;;;;;;;11.98;100.00;99603.44;5008764;28;103263;-58
2021/09/01 05:21:22;;;;;;;9.70;8.73;;;;;;;12.14;100.00;99604.13;5011752;28;103149;-58
2021/09/01 05:23:53;;;;;;;180.87;16.17;;;;;;;12.03;100.00;99609.28;5010914;28;102698;-58
2021/09/01 05:26:25;;;;;;;32.00;10.03;;;;;;;12.14;100.00;99609.44;5010822;28;103940;-59
2021/09/01 05:28:54;;;;;;;79.60;11.63;;;;;;;11.76;100.00;99607.53;5007775;28;103966;-58
2021/09/01 05:31:30;;;;;;;18.00;9.47;;;;;;;11.89;100.00;99614.59;5012527;28;103258;-58
2021/09/01 05:34:02;;;;;;;92.47;12.83;;;;;;;12.13;100.00;99623.63;5007870;28;102793;-58
2021/09/01 05:36:31;;;;;;;22.63;8.77;;;;;;;12.19;100.00;99615.28;5009929;28;102682;-59
2021/09/01 05:39:00;;;;;;;55.90;11.33;;;;;;;12.23;100.00;99617.75;5014949;28;103971;-58
2021/09/01 05:41:29;;;;;;;13.97;8.57;;;;;;;12.36;100.00;99618.63;5009431;28;103202;-58
2021/09/01 05:44:00;;;;;;;94.80;13.13;;;;;;;12.18;100.00;99610.09;5013986;28;102676;-58
2021/09/01 05:46:31;;;;;;;15.57;8.77;;;;;;;12.21;100.00;99616.03;5012174;28;103347;-58
2021/09/01 05:49:00;;;;;;;101.20;11.37;;;;;;;12.25;100.00;99615.84;5001437;28;103193;-58
2021/09/01 05:51:29;;;;;;;42.67;10.47;;;;;;;12.45;100.00;99612.75;5007840;27;103210;-58
2021/09/01 05:53:57;;;;;;;161.47;15.70;;;;;;;12.46;100.00;99617.09;5012446;28;102627;-58
2021/09/01 05:56:34;;;;;;;8.33;7.53;;;;;;;12.59;100.00;99616.19;5010400;28;104068;-58
2021/09/01 05:59:09;;;;;;;10.73;8.87;;;;;;;12.78;100.00;99618.47;4995619;28;104102;-58
2021/09/01 06:01:42;;;;;;;11.90;8.53;;;;;;;12.87;100.00;99625.81;5011378;28;103271;-58
2021/09/01 06:04:12;;;;;;;21.47;8.80;;;;;;;12.80;100.00;99624.50;5011263;28;102712;-57
2021/09/01 06:06:44;;;;;;;148.60;15.00;;;;;;;12.68;100.00;99625.34;5001842;28;103577;-57
2021/09/01 06:09:12;;;;;;;20.87;9.43;;;;;;;12.86;100.00;99629.41;4995207;28;103324;-58
2021/09/01 06:11:44;;;;;;;15.33;10.70;;;;;;;13.05;100.00;99621.06;5007213;28;103536;-57
2021/09/01 06:14:13;;;;;;;75.73;15.73;;;;;;;13.12;100.00;99625.88;5007831;28;102731;-59
2021/09/01 06:16:41;;;;;;;17.00;12.63;;;;;;;13.24;100.00;99625.03;5010552;28;103984;-58
2021/09/01 06:19:10;;;;;;;9.77;8.77;;;;;;;13.14;100.00;99628.41;4999033;28;103897;-57
2021/09/01 06:21:38;;;;;;;238.17;19.90;;;;;;;13.12;100.00;99625.88;5011408;28;103222;-57
2021/09/01 06:24:06;;;;;;;67.57;13.03;;;;;;;13.13;100.00;99629.38;5009027;28;102612;-57
2021/09/01 06:26:34;;;;;;;276.07;21.63;;;;;;;12.94;100.00;99626.25;5013867;28;102839;-58
2021/09/01 06:29:02;;;;;;;76.93;15.07;;;;;;;12.66;100.00;99619.25;5007970;28;104583;-57
2021/09/01 06:31:35;;;;;;;10.27;9.23;;;;;;;13.07;100.00;99620.03;5013213;28;103167;-57
2021/09/01 06:34:03;;;;;;;10.77;9.67;;;;;;;13.39;100.00;99622.28;5007687;28;103551;-58
2021/09/01 06:36:31;;;;;;;29.30;15.57;;;;;;;13.49;100.00;99618.88;5009647;28;104118;-58
2021/09/01 06:38:59;;;;;;;71.40;19.40;;;;;;;13.45;100.00;99627.16;4990713;28;103793;-57
2021/09/01 06:41:28;;;;;;;18.03;14.97;;;;;;;13.68;100.00;99626.41;5007198;28;104116;-58
2021/09/01 06:43:56;;;;;;;72.17;20.90;;;;;;;13.64;100.00;99632.91;5005465;28;102964;-57
2021/09/01 06:46:24;;;;;;;32.97;20.03;;;;;;;13.81;100.00;99640.53;4984918;28;102931;-57
2021/09/01 06:48:53;;;;;;;80.17;23.27;;;;;;;13.58;100.00;99628.88;5005420;28;104143;-66
2021/09/01 06:51:22;;;;;;;22.83;17.43;;;;;;;13.75;100.00;99640.97;5006480;28;103415;-66
2021/09/01 06:53:50;;;;;;;21.80;17.63;;;;;;;13.86;100.00;99643.72;4983480;28;102745;-69
2021/09/01 06:56:20;;;;;;;20.93;16.90;;;;;;;13.93;100.00;99639.63;4986802;28;102840;-67
2021/09/01 06:58:57;;;;;;;19.00;15.43;;;;;;;14.08;100.00;99641.22;5000199;28;103264;-67
2021/09/01 07:01:27;;;;;;;18.27;16.37;;;;;;;14.22;100.00;99646.38;5008091;28;103503;-66
2021/09/01 07:03:58;;;;;;;87.50;21.47;;;;;;;14.16;100.00;99646.81;4981024;28;102803;-68
2021/09/01 07:06:26;;;;;;;30.00;19.73;;;;;;;14.10;100.00;99652.56;4986470;28;103805;-69
2021/09/01 07:08:54;;;;;;;21.50;18.07;;;;;;;14.13;100.00;99657.66;5004382;28;103270;-68
2021/09/01 07:11:22;;;;;;;28.83;22.83;;;;;;;14.26;100.00;99650.50;5009754;28;103244;-68
2021/09/01 07:13:50;;;;;;;50.97;25.43;;;;;;;14.20;100.00;99647.47;5009632;28;102632;-68
2021/09/01 07:16:18;;;;;;;25.90;22.10;;;;;;;14.35;100.00;99649.88;4993471;28;103048;-68
2021/09/01 07:18:47;;;;;;;34.10;22.23;;;;;;;14.30;100.00;99652.00;4993775;28;102920;-68
2021/09/01 07:21:16;;;;;;;20.70;17.23;;;;;;;14.62;100.00;99662.13;5010938;28;102993;-67
2021/09/01 07:23:45;;;;;;;19.90;16.73;;;;;;;14.83;100.00;99663.16;5007431;28;102697;-65
2021/09/01 07:26:13;;;;;;;17.33;15.47;;;;;;;14.91;100.00;99655.47;5011226;28;102843;-68
2021/09/01 07:28:41;;;;;;;21.93;16.93;;;;;;;14.88;100.00;99669.84;5006989;28;103703;-68
2021/09/01 07:31:11;;;;;;;42.10;25.00;;;;;;;14.71;100.00;99664.94;5012036;28;103206;-68
2021/09/01 07:33:39;;;;;;;23.93;19.97;;;;;;;15.02;100.00;99652.84;4992058;28;102938;-68
2021/09/01 07:36:07;;;;;;;19.83;17.87;;;;;;;15.00;100.00;99662.75;4994323;28;102699;-66
2021/09/01 07:38:36;;;;;;;40.03;22.70;;;;;;;14.66;100.00;99660.91;5011336;28;103845;-67
2021/09/01 07:41:05;;;;;;;16.77;15.07;;;;;;;14.89;100.00;99660.91;5004633;28;103356;-67
2021/09/01 07:43:33;;;;;;;20.50;18.30;;;;;;;15.08;100.00;99665.69;4988391;28;102814;-67
2021/09/01 07:46:01;;;;;;;22.67;19.30;;;;;;;15.10;100.00;99677.09;5011676;28;102639;-67
2021/09/01 07:48:30;;;;;;;22.53;20.17;;;;;;;15.21;100.00;99682.44;5012969;28;103268;-67
2021/09/01 07:50:58;;;;;;;18.97;16.97;;;;;;;15.32;100.00;99682.47;5006839;28;103212;-67
2021/09/01 07:53:26;;;;;;;21.23;18.97;;;;;;;15.42;98.98;99675.47;5011527;28;102598;-57
2021/09/01 07:55:56;;;;;;;17.63;15.77;;;;;;;15.45;99.66;99672.56;5009459;28;104082;-57
2021/09/01 07:58:24;;;;;;;18.93;16.70;;;;;;;15.70;96.87;99676.88;5009012;28;103849;-58
2021/09/01 08:00:52;;;;;;;20.60;18.50;;;;;;;15.50;97.51;99685.56;5009777;28;103218;-57
2021/09/01 08:03:20;;;;;;;21.27;18.77;;;;;;;15.70;97.62;99684.00;5009213;28;102759;-58
2021/09/01 08:05:48;;;;;;;17.50;15.63;;;;;;;15.83;96.61;99692.78;5003590;28;102813;-58
2021/09/01 08:08:17;;;;;;;15.07;13.30;;;;;;;15.77;95.15;99693.25;5008851;28;104025;-57
2021/09/01 08:10:45;;;;;;;22.77;20.33;;;;;;;15.84;94.49;99699.78;5005257;28;103269;-57
2021/09/01 08:13:14;;;;;;;21.73;19.40;;;;;;;15.84;95.38;99699.78;5009477;28;103031;-57
2021/09/01 08:15:42;;;;;;;20.50;16.80;;;;;;;15.70;96.35;99703.53;5008969;28;104127;-57
2021/09/01 08:18:10;;;;;;;18.10;16.20;;;;;;;15.92;95.52;99700.03;5008844;28;103349;-57
2021/09/01 08:20:38;;;;;;;21.67;19.40;;;;;;;16.01;95.74;99701.97;5001610;28;103206;-58
2021/09/01 08:23:06;;;;;;;24.00;20.60;;;;;;;16.23;94.10;99700.16;5007622;28;102618;-57
2021/09/01 08:25:34;;;;;;;20.20;18.07;;;;;;;16.42;93.64;99696.84;5007686;28;102626;-57
2021/09/01 08:28:02;;;;;;;20.53;18.13;;;;;;;16.63;93.59;99710.31;4989738;28;102803;-58
2021/09/01 08:30:32;;;;;;;21.67;18.97;;;;;;;16.78;91.88;99701.91;5012223;28;103203;-57
2021/09/01 08:33:00;;;;;;;21.73;18.87;;;;;;;16.89;90.05;99698.34;5008278;28;102761;-58
2021/09/01 08:35:28;;;;;;;17.50;15.60;;;;;;;17.17;90.05;99704.91;4993234;28;102753;-58
2021/09/01 08:37:56;;;;;;;18.60;16.80;;;;;;;18.12;85.54;99703.84;5008780;28;103208;-58
2021/09/01 08:40:24;;;;;;;19.63;17.57;;;;;;;17.44;86.63;99710.59;5006961;28;103226;-57
2021/09/01 08:42:53;;;;;;;19.33;17.37;;;;;;;16.86;89.79;99703.09;5006189;28;102648;-57
2021/09/01 08:45:21;;;;;;;17.98;16.17;;;;;;;17.20;89.84;99704.66;5007089;28;103693;-57
2021/09/01 08:47:53;;;;;;;19.13;17.15;;;;;;;17.67;87.52;99704.19;4992341;28;103109;-57
2021/09/01 08:50:21;;;;;;;19.63;17.60;;;;;;;17.13;87.67;99714.16;5005561;28;103415;-58
2021/09/01 08:52:49;;;;;;;19.17;17.27;;;;;;;17.54;86.51;99711.56;5007412;28;102839;-57
2021/09/01 08:55:17;;;;;;;19.85;17.85;;;;;;;18.17;85.10;99706.97;5005270;28;102649;-59
2021/09/01 08:57:45;;;;;;;16.52;14.85;;;;;;;17.87;84.42;99700.66;5005789;28;104569;-58
2021/09/01 09:00:14;;;;;;;18.52;16.58;;;;;;;19.04;81.49;99704.38;4987807;28;103259;-58
2021/09/01 09:02:54;;;;;;;17.63;15.82;;;;;;;19.42;79.63;99702.72;5004351;28;102619;-58
2021/09/01 09:05:32;;;;;;;19.00;17.10;;;;;;;18.93;78.06;99711.72;5006455;28;102804;-59
2021/09/01 09:08:00;;;;;;;16.50;14.90;;;;;;;19.59;79.63;99702.81;5008557;28;103239;-58
2021/09/01 09:10:31;;;;;;;15.50;14.00;;;;;;;20.45;76.71;99695.50;5010181;28;103272;-58
2021/09/01 09:13:01;;;;;;;17.67;15.98;;;;;;;20.56;74.08;99689.94;5007380;28;102658;-58
2021/09/01 09:15:30;;;;;;;18.63;16.75;;;;;;;19.66;75.47;99689.69;4989429;28;102844;-59
2021/09/01 09:18:25;;;;;;;13.93;12.57;;;;;;;21.24;74.17;99683.97;5005113;28;104100;-59
2021/09/01 09:21:09;;;;;;;15.88;14.38;;;;;;;20.47;75.65;99686.31;5007086;28;103258;-58
2021/09/01 09:23:37;;;;;;;15.90;14.32;;;;;;;19.53;76.14;99684.66;5006430;28;102681;-60
2021/09/01 09:26:20;;;;;;;14.48;12.98;;;;;;;20.83;76.28;99675.66;5008889;28;102618;-59
2021/09/01 09:29:07;;;;;;;13.90;12.60;;;;;;;21.38;72.57;99677.19;5005685;28;103255;-58
2021/09/01 09:31:35;;;;;;;12.02;10.85;;;;;;;21.72;73.34;99670.06;5012529;28;103338;-58
2021/09/01 09:34:09;;;;;;;9.30;8.40;;;;;;;22.52;68.59;99669.63;5010569;28;102623;-58
2021/09/01 09:36:37;;;;;;;9.88;8.98;;;;;;;22.52;69.71;99661.53;5008533;28;102733;-57
2021/09/01 09:39:06;;;;;;;13.93;12.63;;;;;;;22.47;68.46;99663.88;5008422;28;103971;-58
2021/09/01 09:41:34;;;;;;;12.00;10.80;;;;;;;23.08;68.56;99666.22;5011892;28;103208;-59
2021/09/01 09:44:05;;;;;;;13.20;11.90;;;;;;;22.79;68.77;99670.41;5009886;28;102747;-59
2021/09/01 09:46:46;;;;;;;12.85;11.65;;;;;;;23.31;66.53;99665.56;5011346;28;102776;-59
2021/09/01 09:49:16;;;;;;;10.48;9.38;;;;;;;22.87;68.30;99670.41;5013276;28;104135;-58
2021/09/01 09:51:44;;;;;;;10.68;8.88;;;;;;;22.84;69.29;99668.91;4985483;28;103336;-58
2021/09/01 09:54:18;;;;;;;11.07;10.07;;;;;;;23.06;66.71;99659.31;5011155;28;102670;-59
2021/09/01 09:56:47;;;;;;;12.10;10.90;;;;;;;23.12;68.12;99676.69;5013690;28;102739;-59
2021/09/01 09:59:17;;;;;;;12.10;11.00;;;;;;;21.80;69.96;99659.34;5007841;28;103236;-58
2021/09/01 10:01:46;;;;;;;8.02;7.32;;;;;;;22.66;69.91;99659.25;5011206;28;103242;-59
2021/09/01 10:04:16;;;;;;;9.52;8.63;;;;;;;22.96;68.75;99655.97;5010368;28;102722;-59
2021/09/01 10:06:44;;;;;;;9.52;8.73;;;;;;;23.33;65.86;99648.19;4993799;28;102890;-59
2021/09/01 10:09:12;;;;;;;6.90;6.25;;;;;;;23.82;66.20;99650.88;4992443;28;104131;-58
2021/09/01 10:11:46;;;;;;;6.20;5.63;;;;;;;23.85;61.78;99642.44;5014605;28;103230;-59
2021/09/01 10:14:18;;;;;;;8.43;6.57;;;;;;;23.59;62.12;99648.91;5009087;28;102790;-60
2021/09/01 10:16:52;;;;;;;6.60;5.88;;;;;;;23.50;60.02;99639.13;5007556;28;102630;-59
2021/09/01 10:19:26;;;;;;;8.70;7.90;;;;;;;23.31;62.95;99644.84;5007871;28;103289;-59
2021/09/01 10:21:58;;;;;;;6.28;5.68;;;;;;;24.19;60.31;99634.94;5012411;28;103344;-59
2021/09/01 10:24:30;;;;;;;7.10;6.38;;;;;;;24.36;59.14;99631.16;5013335;28;102704;-59
2021/09/01 10:27:05;;;;;;;6.20;5.70;;;;;;;23.96;58.83;99624.03;4990099;28;102716;-58
2021/09/01 10:29:46;;;;;;;6.00;5.50;;;;;;;23.92;61.00;99624.53;5009775;28;103275;-57
2021/09/01 10:32:23;;;;;;;6.63;6.03;;;;;;;23.16;62.48;99630.34;5009161;28;102996;-58
2021/09/01 10:35:27;;;;;;;5.95;5.40;;;;;;;23.90;60.79;99622.00;4992469;28;102828;-59
2021/09/01 10:37:56;;;;;;;5.35;4.85;;;;;;;23.81;55.83;99630.28;5011276;28;102865;-68
2021/09/01 10:40:53;;;;;;;6.18;5.57;;;;;;;23.08;58.35;99631.19;5008371;28;103319;-68
2021/09/01 10:43:21;;;;;;;6.15;5.57;;;;;;;23.45;58.99;99633.41;5003385;28;103205;-68
2021/09/01 10:45:59;;;;;;;5.88;5.28;;;;;;;23.99;55.75;99634.47;5010450;28;102691;-58
2021/09/01 10:48:28;;;;;;;4.95;4.43;;;;;;;24.14;56.89;99631.94;5009276;28;103948;-58
2021/09/01 10:50:58;;;;;;;6.47;5.93;;;;;;;24.04;59.17;99631.25;5002761;28;103316;-58
2021/09/01 10:53:27;;;;;;;5.75;5.13;;;;;;;22.49;58.64;99645.72;4987556;28;103294;-58
2021/09/01 10:55:59;;;;;;;5.68;5.18;;;;;;;22.57;58.92;99641.38;4989276;28;102711;-58
2021/09/01 10:58:33;;;;;;;5.78;5.18;;;;;;;23.19;53.92;99631.84;4992158;28;103389;-58
2021/09/01 11:01:10;;;;;;;6.40;5.30;;;;;;;23.24;55.33;99627.69;5009790;28;104091;-68
2021/09/01 11:03:41;;;;;;;5.23;4.80;;;;;;;24.15;56.44;99622.78;5007605;28;103206;-68
2021/09/01 11:06:21;;;;;;;6.50;5.90;;;;;;;22.93;57.35;99629.34;5005923;28;102760;-69
2021/09/01 11:09:07;;;;;;;6.50;5.90;;;;;;;22.97;58.03;99617.22;4992784;28;102912;-69
2021/09/01 11:11:50;;;;;;;5.93;5.25;;;;;;;22.93;57.90;99614.00;5006046;28;104110;-69
2021/09/01 11:14:35;;;;;;;5.13;4.63;;;;;;;24.56;54.71;99610.75;5008626;28;104342;-70
2021/09/01 11:17:06;;;;;;;5.80;5.20;;;;;;;24.98;52.45;99614.91;5010485;28;102888;-69
2021/09/01 11:19:34;;;;;;;6.10;5.10;;;;;;;24.53;53.74;99611.16;5004659;28;102931;-68
2021/09/01 11:22:10;;;;;;;5.87;5.37;;;;;;;24.55;53.67;99609.09;5004834;28;103260;-68
2021/09/01 11:24:47;;;;;;;6.32;5.80;;;;;;;23.76;56.49;99616.47;5009091;28;103230;-68
2021/09/01 11:27:18;;;;;;;7.60;5.80;;;;;;;22.29;58.31;99617.38;4991261;28;102773;-58